Terminal Aerodrome Forecast
Issued by NWS

Home | Current Version | Previous Version | Text Only | Print | Product List | Glossary On
Versions: 1 2 3 4 5 6 7 8 9 10 11 12 13 14 15 16
000
FTUS43 KGRB 301400 AAA
TAFMTW
TAF AMD
KMTW 301421Z 3014/3112 01007KT P6SM SCT012 SCT050
      TEMPO 3014/3016 OVC012
     FM302000 14007KT P6SM SCT030 BKN070
     FM310300 23004KT 6SM BR SCT080=

USA.gov is the U.S. government's official web portal to all federal, state and local government web resources and services.